Time;durP1;ratioP1;P1;durP2;ratioP2;P2;SDS_P1;SDS_P2;PMS_P1;PMS_P2;Temp;Humidity;BMP_temperature;BMP_pressure;BME280_temperature;BME280_humidity;BME280_pressure;Samples;Min_cycle;Max_cycle;Signal;HPM_P1;HPM_P2
2023/03/13 00:00:09;;;;;;;2.67;1.97;;;11.10;43.10;;;;;;2989131;26;20592;-76
2023/03/13 00:05:13;;;;;;;3.73;2.30;;;11.10;42.80;;;;;;10427728;28;20709;-76
2023/03/13 00:10:16;;;;;;;2.83;1.97;;;11.10;42.50;;;;;;10435461;28;20237;-76
2023/03/13 00:15:21;;;;;;;3.77;2.90;;;11.10;42.50;;;;;;10437780;28;20615;-76
2023/03/13 00:20:24;;;;;;;5.13;3.40;;;11.10;42.70;;;;;;10435781;28;20241;-76
2023/03/13 00:25:27;;;;;;;3.77;2.67;;;11.10;42.40;;;;;;10440846;28;20248;-76
2023/03/13 00:30:32;;;;;;;3.97;2.50;;;11.10;42.20;;;;;;10436716;28;20240;-76
2023/03/13 00:35:35;;;;;;;3.60;2.33;;;11.00;42.30;;;;;;10430947;28;20765;-76
2023/03/13 00:40:38;;;;;;;2.77;1.90;;;11.00;42.00;;;;;;10432778;28;20643;-76
2023/03/13 00:45:43;;;;;;;3.10;1.80;;;11.00;42.00;;;;;;10434776;28;20251;-76
2023/03/13 00:50:46;;;;;;;2.23;1.70;;;11.00;42.20;;;;;;10436280;28;20324;-76
2023/03/13 00:55:55;;;;;;;2.70;1.70;;;11.00;42.00;;;;;;10433920;28;20228;-76
2023/03/13 01:01:07;;;;;;;2.50;1.73;;;10.90;42.30;;;;;;10424937;28;20229;-76
2023/03/13 01:06:11;;;;;;;1.80;1.60;;;10.90;42.30;;;;;;10435142;28;20236;-76
2023/03/13 01:11:16;;;;;;;3.13;1.37;;;10.90;42.00;;;;;;10440038;28;20839;-76
2023/03/13 01:16:22;;;;;;;3.30;1.40;;;10.80;42.00;;;;;;10434813;28;20286;-76
2023/03/13 01:21:26;;;;;;;3.40;1.87;;;10.80;42.20;;;;;;10433179;28;20228;-76
2023/03/13 01:26:29;;;;;;;2.93;1.70;;;10.70;41.90;;;;;;10436468;28;20711;-76
2023/03/13 01:31:35;;;;;;;3.00;1.40;;;10.70;42.20;;;;;;10431177;28;20228;-76
2023/03/13 01:36:39;;;;;;;1.63;1.43;;;10.60;42.30;;;;;;10429618;28;20608;-76
2023/03/13 01:41:42;;;;;;;2.77;1.50;;;10.60;42.30;;;;;;10432930;28;20229;-76
2023/03/13 01:46:47;;;;;;;2.53;1.50;;;10.60;42.30;;;;;;10427167;28;20775;-76
2023/03/13 01:51:53;;;;;;;2.23;1.90;;;10.60;42.40;;;;;;10428599;28;20231;-76
2023/03/13 01:57:01;;;;;;;3.87;1.80;;;10.60;42.40;;;;;;10443937;28;20228;-76
2023/03/13 02:02:06;;;;;;;2.03;1.70;;;10.50;42.30;;;;;;10431541;28;20229;-76
2023/03/13 02:07:13;;;;;;;3.17;1.80;;;10.60;42.40;;;;;;10441605;28;20229;-76
2023/03/13 02:12:20;;;;;;;4.07;2.03;;;10.50;42.20;;;;;;10440779;28;20619;-76
2023/03/13 02:17:26;;;;;;;4.00;1.67;;;10.50;42.20;;;;;;10439042;28;20248;-76
2023/03/13 02:22:35;;;;;;;3.20;1.80;;;10.50;42.10;;;;;;10447553;28;20225;-76
2023/03/13 02:27:40;;;;;;;1.87;1.60;;;10.50;42.00;;;;;;10434505;28;20283;-76
2023/03/13 02:32:44;;;;;;;3.37;1.50;;;10.60;41.90;;;;;;10449014;28;20226;-76
2023/03/13 02:37:51;;;;;;;3.03;1.63;;;10.50;41.60;;;;;;10447968;28;20231;-76
2023/03/13 02:42:58;;;;;;;3.80;1.80;;;10.50;41.80;;;;;;10445301;28;20244;-76
2023/03/13 02:48:01;;;;;;;6.87;2.90;;;10.50;41.70;;;;;;10434043;28;20225;-76
2023/03/13 02:53:07;;;;;;;3.90;1.83;;;10.40;41.50;;;;;;10438049;28;20248;-76
2023/03/13 02:58:12;;;;;;;3.50;2.40;;;10.40;41.80;;;;;;10443443;28;20233;-76
2023/03/13 03:03:15;;;;;;;3.60;2.03;;;10.40;41.90;;;;;;10445053;28;20638;-75
2023/03/13 03:08:18;;;;;;;3.53;1.80;;;10.30;41.70;;;;;;10444955;28;21302;-76
2023/03/13 03:13:22;;;;;;;3.03;1.90;;;10.30;41.90;;;;;;10442657;28;20239;-76
2023/03/13 03:18:26;;;;;;;3.00;1.70;;;10.20;42.10;;;;;;10441141;28;20244;-76
2023/03/13 03:23:29;;;;;;;2.83;1.70;;;10.30;42.20;;;;;;10443497;28;20229;-76
2023/03/13 03:28:33;;;;;;;2.83;1.80;;;10.30;42.20;;;;;;10441565;28;20237;-76
2023/03/13 03:33:37;;;;;;;2.97;2.10;;;10.30;42.30;;;;;;10442952;28;20233;-76
2023/03/13 03:38:41;;;;;;;2.90;2.07;;;10.30;41.80;;;;;;10442578;28;20451;-76
2023/03/13 03:43:46;;;;;;;2.53;1.60;;;10.30;41.80;;;;;;10438259;28;20225;-76
2023/03/13 03:48:49;;;;;;;2.93;1.60;;;10.40;41.90;;;;;;10443657;28;20229;-76
2023/03/13 03:53:53;;;;;;;2.30;1.60;;;10.30;41.90;;;;;;10430354;28;20229;-76
2023/03/13 03:58:58;;;;;;;2.60;1.50;;;10.30;41.80;;;;;;10438999;28;20228;-76
2023/03/13 04:04:01;;;;;;;2.47;1.30;;;10.40;41.90;;;;;;10441365;28;20241;-76
2023/03/13 04:09:04;;;;;;;2.60;1.47;;;10.30;41.70;;;;;;10440481;28;20251;-76
2023/03/13 04:14:08;;;;;;;1.97;1.70;;;10.20;41.70;;;;;;10434545;28;20247;-76
2023/03/13 04:19:12;;;;;;;2.67;1.70;;;10.20;42.00;;;;;;10436158;28;20240;-76
2023/03/13 04:24:15;;;;;;;1.77;1.60;;;10.20;41.90;;;;;;10435504;28;20676;-76
2023/03/13 04:29:19;;;;;;;1.77;1.60;;;10.20;42.00;;;;;;10440908;28;20243;-78
2023/03/13 04:34:22;;;;;;;1.57;1.40;;;10.10;42.00;;;;;;10442406;28;20260;-76
2023/03/13 04:39:25;;;;;;;1.63;1.47;;;10.20;42.00;;;;;;10436971;28;20604;-76
2023/03/13 04:44:30;;;;;;;2.87;1.77;;;10.20;42.00;;;;;;10441102;28;20924;-76
2023/03/13 04:49:33;;;;;;;3.23;1.60;;;10.20;42.00;;;;;;10437420;28;20240;-77
2023/03/13 04:54:37;;;;;;;2.27;1.90;;;10.30;41.90;;;;;;10441261;28;20232;-76
2023/03/13 04:59:41;;;;;;;1.77;1.50;;;10.30;41.80;;;;;;10437156;28;20229;-76
2023/03/13 05:04:44;;;;;;;2.63;2.33;;;10.40;41.90;;;;;;10435440;28;20225;-76
2023/03/13 05:09:47;;;;;;;2.83;2.13;;;10.40;41.70;;;;;;10435135;28;20259;-76
2023/03/13 05:14:52;;;;;;;2.23;2.00;;;10.40;41.70;;;;;;10440031;28;20235;-76
2023/03/13 05:19:56;;;;;;;1.83;1.50;;;10.40;41.80;;;;;;10443637;28;20237;-77
2023/03/13 05:24:59;;;;;;;3.10;1.60;;;10.40;41.70;;;;;;10437628;28;20724;-76
2023/03/13 05:30:04;;;;;;;2.37;1.67;;;10.50;41.80;;;;;;10439079;28;21183;-76
2023/03/13 05:35:08;;;;;;;2.17;2.00;;;10.50;41.90;;;;;;10435045;28;20236;-76
2023/03/13 05:40:12;;;;;;;1.73;1.20;;;10.50;41.80;;;;;;10434662;28;20241;-76
2023/03/13 05:45:17;;;;;;;7.23;5.87;;;10.60;41.80;;;;;;10435474;28;20228;-77
2023/03/13 05:50:20;;;;;;;3.53;2.50;;;10.60;41.80;;;;;;10439789;28;20233;-76
2023/03/13 05:55:23;;;;;;;2.17;1.80;;;10.60;41.60;;;;;;10431484;28;20229;-76
2023/03/13 06:00:28;;;;;;;2.53;1.67;;;10.70;41.60;;;;;;10435173;28;20241;-75
2023/03/13 06:05:31;;;;;;;2.90;2.23;;;10.70;41.60;;;;;;10441122;28;20225;-75
2023/03/13 06:10:34;;;;;;;3.00;2.70;;;10.70;41.60;;;;;;10437968;28;20228;-75
2023/03/13 06:15:38;;;;;;;4.80;2.10;;;10.70;41.50;;;;;;10440932;28;20241;-76
2023/03/13 06:20:43;;;;;;;2.53;1.70;;;10.70;41.70;;;;;;10439465;28;21657;-75
2023/03/13 06:25:47;;;;;;;1.60;1.50;;;10.70;41.60;;;;;;10441897;28;20225;-75
2023/03/13 06:30:52;;;;;;;1.43;1.33;;;10.80;41.70;;;;;;10431431;28;20315;-75
2023/03/13 06:35:57;;;;;;;2.27;1.80;;;10.80;41.60;;;;;;10435582;28;20217;-75
2023/03/13 06:41:00;;;;;;;2.63;2.43;;;10.90;41.70;;;;;;10446487;28;20256;-75
2023/03/13 06:46:05;;;;;;;1.87;1.70;;;10.90;41.50;;;;;;10444305;28;20670;-74
2023/03/13 06:51:12;;;;;;;1.60;1.50;;;10.90;41.50;;;;;;10440803;28;20237;-75
2023/03/13 06:56:15;;;;;;;1.70;1.60;;;11.00;41.60;;;;;;10432678;28;20233;-75
2023/03/13 07:01:20;;;;;;;1.90;1.40;;;11.00;41.70;;;;;;10445284;28;20233;-76
2023/03/13 07:06:23;;;;;;;2.60;1.37;;;11.00;41.70;;;;;;10445615;28;20229;-75
2023/03/13 07:11:26;;;;;;;2.30;1.60;;;11.10;41.70;;;;;;10447155;28;20229;-75
2023/03/13 07:16:32;;;;;;;2.43;1.13;;;11.10;41.50;;;;;;10443355;28;20287;-76
2023/03/13 07:21:35;;;;;;;1.53;1.20;;;11.20;41.60;;;;;;10445752;28;20236;-76
2023/03/13 07:26:38;;;;;;;1.50;1.40;;;11.20;41.60;;;;;;10442182;28;20315;-76
2023/03/13 07:31:51;;;;;;;1.80;1.50;;;11.20;41.60;;;;;;10443960;28;20228;-76
2023/03/13 07:36:55;;;;;;;2.00;1.27;;;11.20;41.50;;;;;;10434687;28;20724;-76
2023/03/13 07:41:59;;;;;;;1.30;1.20;;;11.30;41.50;;;;;;10439133;28;20225;-76
2023/03/13 07:47:04;;;;;;;1.60;1.30;;;11.30;41.40;;;;;;10439055;28;20240;-77
2023/03/13 07:52:07;;;;;;;3.57;1.17;;;11.30;41.50;;;;;;10432326;28;20324;-76
2023/03/13 07:57:10;;;;;;;1.53;1.37;;;11.40;41.90;;;;;;10432401;28;20229;-76
2023/03/13 08:02:15;;;;;;;1.80;1.67;;;11.40;42.00;;;;;;10435938;28;20711;-75
2023/03/13 08:07:18;;;;;;;1.33;1.23;;;11.40;42.20;;;;;;10432130;28;20229;-80
2023/03/13 08:12:22;;;;;;;1.50;1.17;;;11.50;42.30;;;;;;10430796;28;20247;-78
2023/03/13 08:17:29;;;;;;;1.70;1.53;;;11.60;42.50;;;;;;10430387;28;20224;-77
2023/03/13 08:22:32;;;;;;;1.70;1.60;;;11.70;42.60;;;;;;10432115;28;20245;-77
2023/03/13 08:27:35;;;;;;;3.03;1.73;;;11.80;42.60;;;;;;10434711;28;20232;-76
2023/03/13 08:32:40;;;;;;;3.87;2.53;;;11.90;42.90;;;;;;10438813;28;20631;-77
2023/03/13 08:37:43;;;;;;;2.70;2.50;;;12.00;43.20;;;;;;10444181;28;20226;-78
2023/03/13 08:42:46;;;;;;;2.80;2.60;;;12.20;43.20;;;;;;10430480;28;20327;-77
2023/03/13 08:47:53;;;;;;;2.20;1.40;;;12.40;43.40;;;;;;10429747;28;20220;-77
2023/03/13 08:52:56;;;;;;;1.73;1.37;;;12.50;43.40;;;;;;10429157;28;20231;-79
2023/03/13 08:58:00;;;;;;;2.30;1.30;;;12.70;43.50;;;;;;10431518;28;20228;-78
2023/03/13 09:03:04;;;;;;;1.67;1.10;;;13.00;44.00;;;;;;10420966;28;20233;-78
2023/03/13 09:08:07;;;;;;;1.40;1.30;;;13.30;44.10;;;;;;10426489;28;20697;-78
2023/03/13 09:13:11;;;;;;;1.00;1.00;;;13.70;44.20;;;;;;10437203;28;20324;-77
2023/03/13 09:18:15;;;;;;;1.00;0.90;;;14.10;43.90;;;;;;10430297;28;20233;-77
2023/03/13 09:23:20;;;;;;;0.70;0.70;;;14.60;44.00;;;;;;10436010;28;20225;-77
2023/03/13 09:28:23;;;;;;;0.90;0.90;;;15.10;43.50;;;;;;10430756;28;20233;-77
2023/03/13 09:33:28;;;;;;;1.70;0.80;;;15.50;42.90;;;;;;10426511;28;20225;-76
2023/03/13 09:38:31;;;;;;;1.20;1.10;;;15.90;42.00;;;;;;10425152;28;20244;-76
2023/03/13 09:43:42;;;;;;;1.00;1.00;;;16.20;41.80;;;;;;10435329;28;20255;-77
2023/03/13 09:48:50;;;;;;;1.20;1.00;;;16.40;41.00;;;;;;10432259;28;20579;-77
2023/03/13 09:53:58;;;;;;;0.80;0.80;;;16.50;40.20;;;;;;10426236;28;20646;-77
2023/03/13 09:59:13;;;;;;;0.77;0.77;;;16.70;39.80;;;;;;10427300;28;20229;-76
2023/03/13 10:04:30;;;;;;;1.07;0.90;;;16.70;39.80;;;;;;10431466;28;20231;-76
2023/03/13 10:09:36;;;;;;;0.77;0.73;;;16.70;39.90;;;;;;10423946;28;20240;-77
2023/03/13 10:14:44;;;;;;;1.77;0.90;;;16.70;41.00;;;;;;10436938;28;20287;-77
2023/03/13 10:19:56;;;;;;;1.07;0.97;;;16.60;39.70;;;;;;10435718;28;20300;-78
2023/03/13 10:25:03;;;;;;;0.90;0.90;;;16.80;39.70;;;;;;10434609;28;20225;-77
2023/03/13 10:30:15;;;;;;;1.10;1.00;;;16.80;40.10;;;;;;10435794;28;20637;-76
2023/03/13 10:35:25;;;;;;;1.00;1.00;;;16.90;40.00;;;;;;10429524;28;20228;-76
2023/03/13 10:40:28;;;;;;;0.90;0.90;;;16.90;39.70;;;;;;10440694;28;20237;-77
2023/03/13 10:45:35;;;;;;;0.90;0.90;;;17.00;40.10;;;;;;10436779;28;20229;-76
2023/03/13 10:50:44;;;;;;;1.20;1.10;;;17.10;40.00;;;;;;10436013;28;20336;-77
2023/03/13 10:55:47;;;;;;;1.13;0.90;;;17.20;38.90;;;;;;10437987;28;20229;-76
2023/03/13 11:00:50;;;;;;;1.10;1.10;;;17.30;39.80;;;;;;10438445;28;20712;-76
2023/03/13 11:06:00;;;;;;;0.80;0.80;;;17.50;39.60;;;;;;10435643;28;20803;-79
2023/03/13 11:11:05;;;;;;;1.00;0.90;;;17.60;38.20;;;;;;10471361;28;20311;-76
2023/03/13 11:16:18;;;;;;;0.87;0.87;;;17.80;39.10;;;;;;10479611;28;20236;-75
2023/03/13 11:21:32;;;;;;;1.53;0.90;;;17.90;38.20;;;;;;10494641;28;20263;-77
2023/03/13 11:26:38;;;;;;;0.80;0.80;;;18.10;38.60;;;;;;10479981;28;20227;-76
2023/03/13 11:31:46;;;;;;;0.97;0.80;;;18.30;38.50;;;;;;10482177;28;20356;-76
2023/03/13 11:36:55;;;;;;;1.00;0.90;;;18.60;37.80;;;;;;10481683;28;20660;-78
2023/03/13 11:42:02;;;;;;;1.17;1.07;;;18.90;37.70;;;;;;10483410;28;20231;-77
2023/03/13 11:47:27;;;;;;;0.80;0.80;;;19.10;37.40;;;;;;10475464;28;20770;-77
2023/03/13 11:52:54;;;;;;;1.53;1.20;;;19.40;37.30;;;;;;10480362;28;20232;-77
2023/03/13 11:58:10;;;;;;;1.17;1.03;;;19.60;36.20;;;;;;10484956;28;20246;-77
2023/03/13 12:03:19;;;;;;;0.90;0.90;;;19.80;36.30;;;;;;10488001;28;20235;-77
2023/03/13 12:08:29;;;;;;;1.07;0.90;;;19.90;36.40;;;;;;10480550;28;20236;-77
2023/03/13 12:13:38;;;;;;;1.17;1.10;;;19.90;33.30;;;;;;10475657;28;20803;-77
2023/03/13 12:18:44;;;;;;;1.60;1.10;;;20.00;34.80;;;;;;10473989;28;20236;-77
2023/03/13 12:23:58;;;;;;;1.77;1.07;;;20.00;35.10;;;;;;10480717;28;20286;-77
2023/03/13 12:29:09;;;;;;;1.03;0.90;;;20.10;34.70;;;;;;10476762;28;20251;-77
2023/03/13 12:34:18;;;;;;;1.30;1.20;;;20.20;34.70;;;;;;10478140;28;20575;-77
2023/03/13 12:39:32;;;;;;;2.33;1.10;;;20.30;34.10;;;;;;10482783;28;20720;-77
2023/03/13 12:44:35;;;;;;;1.37;1.10;;;20.40;34.60;;;;;;10475482;28;20230;-78
2023/03/13 12:50:15;;;;;;;1.20;1.10;;;20.50;35.50;;;;;;10489957;28;20262;-75
2023/03/13 12:55:54;;;;;;;0.90;0.90;;;20.50;32.40;;;;;;10478125;28;20236;-75
2023/03/13 13:01:02;;;;;;;1.10;1.00;;;20.50;34.30;;;;;;10480573;28;20243;-75
2023/03/13 13:06:09;;;;;;;1.10;1.00;;;20.50;34.40;;;;;;10482453;28;20699;-74
2023/03/13 13:11:49;;;;;;;0.97;0.97;;;20.50;33.90;;;;;;10485286;28;20228;-75
2023/03/13 13:16:57;;;;;;;1.60;1.23;;;20.50;34.20;;;;;;10484693;28;20909;-75
2023/03/13 13:22:37;;;;;;;1.17;1.17;;;20.60;34.70;;;;;;10484148;28;20724;-75
2023/03/13 13:27:48;;;;;;;1.87;1.37;;;20.60;31.40;;;;;;10478873;28;20366;-74
2023/03/13 13:32:52;;;;;;;1.67;1.10;;;20.70;32.40;;;;;;10488058;28;20973;-74
2023/03/13 13:38:38;;;;;;;1.20;1.10;;;20.70;34.50;;;;;;10479754;28;20244;-75
2023/03/13 13:43:44;;;;;;;1.73;1.10;;;20.70;33.60;;;;;;10487782;28;20316;-75
2023/03/13 13:48:47;;;;;;;1.10;1.00;;;20.70;33.70;;;;;;10484822;28;20243;-76
2023/03/13 13:53:55;;;;;;;2.20;1.17;;;20.80;34.20;;;;;;10468768;28;20220;-75
2023/03/13 13:59:02;;;;;;;1.20;1.10;;;20.90;34.00;;;;;;10481025;28;20231;-77
2023/03/13 14:04:15;;;;;;;1.13;1.03;;;21.00;33.40;;;;;;10468861;28;20228;-77
2023/03/13 14:09:31;;;;;;;2.63;1.17;;;21.00;32.70;;;;;;10476046;28;20291;-76
2023/03/13 14:14:35;;;;;;;4.07;1.50;;;21.10;31.80;;;;;;10477198;28;20235;-76
2023/03/13 14:19:42;;;;;;;1.53;1.13;;;21.10;32.80;;;;;;10480630;28;20278;-75
2023/03/13 14:24:57;;;;;;;3.93;1.30;;;21.10;32.40;;;;;;10474042;28;20236;-76
2023/03/13 14:30:02;;;;;;;3.13;2.20;;;21.20;32.40;;;;;;10479120;28;20220;-75
2023/03/13 14:35:08;;;;;;;2.57;1.77;;;21.30;32.50;;;;;;10469462;28;20225;-76
2023/03/13 14:40:24;;;;;;;2.13;1.60;;;21.30;32.70;;;;;;10475807;28;20236;-75
2023/03/13 14:45:31;;;;;;;3.00;2.60;;;21.30;31.80;;;;;;10468756;28;20235;-75
2023/03/13 14:50:35;;;;;;;1.63;1.53;;;21.30;32.10;;;;;;10477096;28;20247;-75
2023/03/13 14:55:39;;;;;;;2.87;1.70;;;21.30;32.30;;;;;;10468758;28;20232;-76
2023/03/13 15:00:45;;;;;;;1.07;1.07;;;21.40;32.80;;;;;;10471782;28;20251;-75
2023/03/13 15:05:50;;;;;;;1.33;1.20;;;21.40;32.00;;;;;;10477610;28;20303;-76
2023/03/13 15:10:53;;;;;;;1.37;1.20;;;21.50;32.40;;;;;;10465936;28;20301;-76
2023/03/13 15:15:59;;;;;;;2.13;1.10;;;21.50;32.60;;;;;;10478818;28;20243;-77
2023/03/13 15:21:21;;;;;;;1.80;1.20;;;21.60;32.00;;;;;;10478368;28;20620;-76
2023/03/13 15:26:25;;;;;;;1.30;1.20;;;21.60;31.30;;;;;;10478200;28;20231;-76
2023/03/13 15:31:30;;;;;;;1.30;1.20;;;21.60;32.20;;;;;;10479647;28;20224;-76
2023/03/13 15:36:33;;;;;;;1.67;1.57;;;21.60;31.70;;;;;;10478348;28;20232;-75
2023/03/13 15:41:36;;;;;;;3.73;2.37;;;21.60;32.30;;;;;;10476196;28;20235;-74
2023/03/13 15:46:41;;;;;;;2.10;1.90;;;21.60;32.20;;;;;;10480202;28;20244;-74
2023/03/13 15:51:44;;;;;;;3.33;2.00;;;21.60;31.90;;;;;;10470123;28;20233;-74
2023/03/13 15:56:47;;;;;;;4.03;2.27;;;21.60;32.20;;;;;;10475640;28;20603;-75
2023/03/13 16:01:52;;;;;;;5.23;2.90;;;21.60;32.00;;;;;;10480911;28;20263;-75
2023/03/13 16:06:55;;;;;;;2.67;2.43;;;21.60;31.60;;;;;;10482344;28;20234;-75
2023/03/13 16:11:58;;;;;;;3.17;1.80;;;21.50;31.70;;;;;;10478065;28;20337;-74
2023/03/13 16:17:04;;;;;;;1.80;1.60;;;21.50;32.10;;;;;;10474179;28;20910;-74
2023/03/13 16:22:07;;;;;;;2.33;1.50;;;21.50;31.50;;;;;;10478098;28;20237;-75
2023/03/13 16:27:15;;;;;;;2.60;1.30;;;21.40;32.30;;;;;;10477875;28;20233;-75
2023/03/13 16:32:23;;;;;;;2.33;1.50;;;21.40;31.70;;;;;;10484195;28;20263;-75
2023/03/13 16:37:26;;;;;;;2.27;1.37;;;21.40;32.00;;;;;;10478949;28;20236;-76
2023/03/13 16:42:29;;;;;;;2.00;1.30;;;21.40;32.20;;;;;;10479951;28;20324;-76
2023/03/13 16:47:34;;;;;;;2.73;2.30;;;21.30;31.80;;;;;;10475987;28;20227;-76
2023/03/13 16:52:37;;;;;;;1.73;1.20;;;21.30;31.60;;;;;;10479613;28;20260;-77
2023/03/13 16:57:40;;;;;;;1.47;1.10;;;21.20;31.90;;;;;;10481174;28;20241;-76
2023/03/13 17:02:45;;;;;;;2.17;1.20;;;21.10;31.80;;;;;;10484713;28;20231;-76
2023/03/13 17:07:51;;;;;;;2.63;2.37;;;21.00;31.60;;;;;;10478348;28;20597;-77
2023/03/13 17:12:54;;;;;;;2.30;2.10;;;21.00;31.70;;;;;;10478262;28;20236;-76
2023/03/13 17:17:59;;;;;;;1.90;1.63;;;20.90;31.70;;;;;;10473604;28;20600;-77
2023/03/13 17:23:02;;;;;;;2.50;1.47;;;20.80;31.20;;;;;;10485652;28;20580;-76
2023/03/13 17:28:05;;;;;;;2.80;2.13;;;20.60;31.20;;;;;;10479973;28;20810;-77
2023/03/13 17:33:10;;;;;;;1.77;1.63;;;20.50;31.30;;;;;;10480576;28;20224;-75
2023/03/13 17:38:13;;;;;;;4.30;3.87;;;20.40;31.20;;;;;;10472703;28;20304;-74
2023/03/13 17:43:16;;;;;;;4.57;4.17;;;20.20;31.20;;;;;;10477472;28;20239;-74
2023/03/13 17:48:21;;;;;;;3.10;2.80;;;20.10;31.20;;;;;;10482617;28;20238;-73
2023/03/13 17:53:24;;;;;;;1.90;1.73;;;20.00;31.00;;;;;;10478980;28;20240;-74
2023/03/13 17:58:27;;;;;;;2.73;2.07;;;19.80;31.30;;;;;;10480122;28;20241;-75
2023/03/13 18:03:32;;;;;;;2.33;2.13;;;19.70;31.30;;;;;;10477353;28;20235;-77
2023/03/13 18:08:35;;;;;;;1.47;1.30;;;19.70;31.00;;;;;;10481402;28;20224;-77
2023/03/13 18:13:38;;;;;;;3.90;3.33;;;19.60;31.30;;;;;;10484035;28;20236;-77
2023/03/13 18:18:43;;;;;;;2.70;2.30;;;19.50;31.40;;;;;;10477470;28;20224;-77
2023/03/13 18:23:46;;;;;;;1.90;1.80;;;19.40;31.20;;;;;;10484266;28;20227;-77
2023/03/13 18:28:49;;;;;;;4.17;3.77;;;19.30;31.40;;;;;;10484402;28;20224;-77
2023/03/13 18:33:55;;;;;;;1.90;1.80;;;19.20;31.20;;;;;;10466768;28;20229;-77
2023/03/13 18:38:58;;;;;;;2.27;1.80;;;19.10;31.10;;;;;;10489741;28;20703;-76
2023/03/13 18:44:01;;;;;;;2.77;1.80;;;18.90;31.40;;;;;;10495056;28;20236;-77
2023/03/13 18:49:11;;;;;;;1.80;1.70;;;18.80;31.30;;;;;;10488188;28;20243;-76
2023/03/13 18:54:14;;;;;;;1.50;1.30;;;18.70;30.60;;;;;;10482037;28;20791;-77
2023/03/13 18:59:20;;;;;;;1.60;1.50;;;18.60;31.10;;;;;;10489470;28;20232;-78
2023/03/13 19:04:25;;;;;;;5.13;4.13;;;18.50;30.80;;;;;;10475627;28;20228;-76
2023/03/13 19:09:28;;;;;;;2.23;1.93;;;18.40;30.70;;;;;;10484969;28;20256;-75
2023/03/13 19:14:45;;;;;;;1.50;1.40;;;18.30;30.80;;;;;;10482558;28;20230;-75
2023/03/13 19:19:49;;;;;;;1.43;1.33;;;18.20;30.60;;;;;;10484868;28;20238;-76
2023/03/13 19:24:53;;;;;;;2.67;2.30;;;18.10;30.40;;;;;;10485345;28;20787;-77
2023/03/13 19:29:56;;;;;;;2.40;2.20;;;18.10;31.60;;;;;;10472529;28;20228;-75
2023/03/13 19:35:00;;;;;;;2.10;2.00;;;18.00;30.70;;;;;;10481917;28;20221;-75
2023/03/13 19:40:05;;;;;;;1.90;1.80;;;17.90;30.30;;;;;;10477907;28;20224;-75
2023/03/13 19:45:10;;;;;;;3.47;2.13;;;17.80;30.50;;;;;;10484309;28;20235;-74
2023/03/13 19:50:18;;;;;;;3.57;3.27;;;17.80;30.70;;;;;;10485084;28;20239;-74
2023/03/13 19:55:22;;;;;;;2.60;2.40;;;17.70;30.30;;;;;;10487809;28;20401;-76
2023/03/13 20:00:27;;;;;;;2.60;2.40;;;17.60;30.50;;;;;;10483900;28;20746;-74
2023/03/13 20:05:31;;;;;;;1.90;1.70;;;17.60;30.40;;;;;;10467772;28;20588;-74
2023/03/13 20:10:35;;;;;;;1.90;1.80;;;17.50;30.20;;;;;;10482132;28;20236;-74
2023/03/13 20:15:38;;;;;;;2.97;1.60;;;17.40;30.40;;;;;;10488710;28;20255;-74
2023/03/13 20:20:42;;;;;;;1.80;1.70;;;17.30;30.30;;;;;;10486881;28;20228;-73
2023/03/13 20:25:46;;;;;;;1.70;1.60;;;17.20;30.30;;;;;;10480425;28;20227;-74
2023/03/13 20:30:50;;;;;;;1.60;1.50;;;17.10;30.50;;;;;;10475959;28;20225;-74
2023/03/13 20:35:59;;;;;;;1.93;1.40;;;17.00;30.50;;;;;;10475847;28;20228;-74
2023/03/13 20:41:02;;;;;;;1.60;1.50;;;16.90;30.10;;;;;;10462715;28;20688;-74
2023/03/13 20:46:06;;;;;;;2.17;1.97;;;16.90;30.60;;;;;;10479467;28;20579;-74
2023/03/13 20:51:12;;;;;;;1.00;1.00;;;16.80;30.50;;;;;;10477035;28;20701;-74
2023/03/13 20:56:15;;;;;;;1.40;1.30;;;16.70;30.40;;;;;;10472363;28;20229;-76
2023/03/13 21:01:18;;;;;;;1.40;1.30;;;16.70;30.50;;;;;;10476163;28;20236;-75
2023/03/13 21:06:24;;;;;;;1.40;1.30;;;16.60;30.40;;;;;;10474107;28;20597;-75
2023/03/13 21:11:28;;;;;;;1.80;1.70;;;16.60;30.20;;;;;;10463214;28;20772;-76
2023/03/13 21:16:31;;;;;;;1.80;1.70;;;16.60;30.30;;;;;;10481605;28;20254;-76
2023/03/13 21:21:36;;;;;;;2.23;1.67;;;16.50;30.20;;;;;;10480931;28;20236;-76
2023/03/13 21:26:39;;;;;;;1.47;1.20;;;16.50;30.20;;;;;;10459911;28;20224;-76
2023/03/13 21:31:42;;;;;;;1.53;1.43;;;16.50;30.00;;;;;;10479903;28;20232;-76
2023/03/13 21:36:47;;;;;;;2.63;1.30;;;16.40;30.10;;;;;;10478458;28;20775;-76
2023/03/13 21:41:51;;;;;;;1.70;1.27;;;16.30;30.20;;;;;;10474766;28;20229;-76
2023/03/13 21:46:54;;;;;;;1.40;1.30;;;16.30;30.50;;;;;;10482071;28;20581;-75
2023/03/13 21:51:59;;;;;;;1.60;1.30;;;16.30;30.60;;;;;;10484891;28;20891;-76
2023/03/13 21:57:02;;;;;;;1.47;1.37;;;16.30;30.60;;;;;;10482979;28;20228;-76
2023/03/13 22:02:05;;;;;;;2.63;1.70;;;16.40;30.80;;;;;;10478361;28;20232;-76
2023/03/13 22:07:10;;;;;;;1.53;1.40;;;16.50;31.40;;;;;;10482985;28;20236;-75
2023/03/13 22:12:13;;;;;;;2.60;1.40;;;16.50;31.90;;;;;;10485666;28;20247;-76
2023/03/13 22:17:18;;;;;;;1.03;1.03;;;16.50;32.50;;;;;;10491691;28;20235;-76
2023/03/13 22:22:22;;;;;;;1.27;1.17;;;16.50;32.60;;;;;;10490447;28;20315;-76
2023/03/13 22:27:26;;;;;;;2.00;1.10;;;16.50;33.40;;;;;;10485508;28;20228;-76
2023/03/13 22:32:30;;;;;;;0.80;0.80;;;16.60;33.50;;;;;;10487553;28;20240;-76
2023/03/13 22:37:34;;;;;;;1.40;1.00;;;16.60;34.20;;;;;;10492296;28;20728;-75
2023/03/13 22:42:38;;;;;;;1.00;0.90;;;16.50;34.00;;;;;;10489139;28;20727;-76
2023/03/13 22:47:41;;;;;;;0.70;0.70;;;16.50;33.90;;;;;;10488027;28;20232;-76
2023/03/13 22:52:46;;;;;;;0.87;0.60;;;16.50;34.10;;;;;;10493566;28;20312;-76
2023/03/13 22:57:49;;;;;;;0.60;0.60;;;16.40;34.90;;;;;;10492117;28;20260;-76
2023/03/13 23:02:53;;;;;;;0.60;0.60;;;16.40;34.70;;;;;;10493904;28;20247;-76
2023/03/13 23:07:57;;;;;;;1.07;0.60;;;16.30;34.70;;;;;;10476137;28;20228;-76
2023/03/13 23:13:01;;;;;;;0.70;0.70;;;16.20;35.20;;;;;;10479301;28;20232;-76
2023/03/13 23:18:05;;;;;;;0.60;0.60;;;16.20;35.00;;;;;;10493310;28;20240;-75
2023/03/13 23:23:09;;;;;;;1.80;0.80;;;16.20;35.40;;;;;;10489873;28;20232;-76
2023/03/13 23:28:13;;;;;;;0.70;0.70;;;16.10;36.50;;;;;;10490412;28;20714;-75
2023/03/13 23:33:16;;;;;;;0.60;0.60;;;16.00;36.00;;;;;;10485411;28;20252;-76
2023/03/13 23:38:22;;;;;;;0.90;0.50;;;15.80;36.40;;;;;;10479006;28;20228;-76
2023/03/13 23:43:25;;;;;;;0.87;0.70;;;15.60;37.30;;;;;;10475729;28;20224;-76
2023/03/13 23:48:29;;;;;;;1.30;0.50;;;15.50;36.90;;;;;;10477692;28;20228;-76
2023/03/13 23:53:37;;;;;;;1.17;0.70;;;15.40;37.00;;;;;;10475335;28;20263;-76
2023/03/13 23:58:40;;;;;;;0.53;0.50;;;15.30;38.60;;;;;;10482395;28;20232;-76
